sensor_id;sensor_type;location;lat;lon;timestamp;temperature;humidity
6102;DHT22;3081;50.584;7.032;2022-10-26T00:00:09;12.30;99.90
6102;DHT22;3081;50.584;7.032;2022-10-26T00:02:36;12.30;99.90
6102;DHT22;3081;50.584;7.032;2022-10-26T00:05:04;12.30;99.90
6102;DHT22;3081;50.584;7.032;2022-10-26T00:07:31;12.30;99.90
6102;DHT22;3081;50.584;7.032;2022-10-26T00:09:58;12.30;99.90
6102;DHT22;3081;50.584;7.032;2022-10-26T00:12:25;12.30;99.90
6102;DHT22;3081;50.584;7.032;2022-10-26T00:14:52;12.30;99.90
6102;DHT22;3081;50.584;7.032;2022-10-26T00:17:20;12.30;99.90
6102;DHT22;3081;50.584;7.032;2022-10-26T00:19:47;12.30;99.90
6102;DHT22;3081;50.584;7.032;2022-10-26T00:22:14;12.40;99.90
6102;DHT22;3081;50.584;7.032;2022-10-26T00:24:40;12.50;99.90
6102;DHT22;3081;50.584;7.032;2022-10-26T00:27:07;12.60;99.90
6102;DHT22;3081;50.584;7.032;2022-10-26T00:29:34;12.70;99.90
6102;DHT22;3081;50.584;7.032;2022-10-26T00:32:01;12.80;99.90
6102;DHT22;3081;50.584;7.032;2022-10-26T00:34:29;12.80;99.90
6102;DHT22;3081;50.584;7.032;2022-10-26T00:36:56;12.90;99.90
6102;DHT22;3081;50.584;7.032;2022-10-26T00:39:23;13.00;99.90
6102;DHT22;3081;50.584;7.032;2022-10-26T00:41:50;13.00;99.90
6102;DHT22;3081;50.584;7.032;2022-10-26T00:44:54;13.10;99.90
6102;DHT22;3081;50.584;7.032;2022-10-26T00:47:26;13.00;99.90
6102;DHT22;3081;50.584;7.032;2022-10-26T00:49:56;13.10;99.90
6102;DHT22;3081;50.584;7.032;2022-10-26T00:52:25;13.10;99.90
6102;DHT22;3081;50.584;7.032;2022-10-26T00:54:53;13.20;99.90
6102;DHT22;3081;50.584;7.032;2022-10-26T00:57:21;13.20;99.90
6102;DHT22;3081;50.584;7.032;2022-10-26T00:59:50;13.20;99.90
6102;DHT22;3081;50.584;7.032;2022-10-26T01:02:18;13.20;99.90
6102;DHT22;3081;50.584;7.032;2022-10-26T01:04:46;13.20;99.90
6102;DHT22;3081;50.584;7.032;2022-10-26T01:07:15;13.10;99.90
6102;DHT22;3081;50.584;7.032;2022-10-26T01:09:42;13.10;99.90
6102;DHT22;3081;50.584;7.032;2022-10-26T01:12:09;12.90;99.90
6102;DHT22;3081;50.584;7.032;2022-10-26T01:14:36;12.90;99.90
6102;DHT22;3081;50.584;7.032;2022-10-26T01:17:11;12.90;99.90
6102;DHT22;3081;50.584;7.032;2022-10-26T01:22:56;12.80;99.90
6102;DHT22;3081;50.584;7.032;2022-10-26T01:25:37;12.80;99.90
6102;DHT22;3081;50.584;7.032;2022-10-26T01:28:15;12.80;99.90
6102;DHT22;3081;50.584;7.032;2022-10-26T01:30:47;12.80;99.90
6102;DHT22;3081;50.584;7.032;2022-10-26T01:33:36;12.70;99.90
6102;DHT22;3081;50.584;7.032;2022-10-26T01:36:10;12.80;99.90
6102;DHT22;3081;50.584;7.032;2022-10-26T01:38:44;12.70;99.90
6102;DHT22;3081;50.584;7.032;2022-10-26T01:41:18;12.80;99.90
6102;DHT22;3081;50.584;7.032;2022-10-26T01:43:52;12.70;99.90
6102;DHT22;3081;50.584;7.032;2022-10-26T01:46:23;12.80;99.90
6102;DHT22;3081;50.584;7.032;2022-10-26T01:48:54;12.80;99.90
6102;DHT22;3081;50.584;7.032;2022-10-26T01:51:21;12.80;99.90
6102;DHT22;3081;50.584;7.032;2022-10-26T01:53:49;12.80;99.90
6102;DHT22;3081;50.584;7.032;2022-10-26T01:56:18;12.80;99.90
6102;DHT22;3081;50.584;7.032;2022-10-26T01:59:22;12.80;99.90
6102;DHT22;3081;50.584;7.032;2022-10-26T02:02:12;12.80;99.90
6102;DHT22;3081;50.584;7.032;2022-10-26T02:04:51;12.80;99.90
6102;DHT22;3081;50.584;7.032;2022-10-26T02:07:28;12.80;99.90
6102;DHT22;3081;50.584;7.032;2022-10-26T02:10:02;12.80;99.90
6102;DHT22;3081;50.584;7.032;2022-10-26T02:12:38;12.80;99.90
6102;DHT22;3081;50.584;7.032;2022-10-26T02:15:10;12.80;99.90
6102;DHT22;3081;50.584;7.032;2022-10-26T02:17:46;12.80;99.90
6102;DHT22;3081;50.584;7.032;2022-10-26T02:20:17;12.80;99.90
6102;DHT22;3081;50.584;7.032;2022-10-26T02:22:47;12.90;99.90
6102;DHT22;3081;50.584;7.032;2022-10-26T02:25:19;12.90;99.90
6102;DHT22;3081;50.584;7.032;2022-10-26T02:27:53;12.90;99.90
6102;DHT22;3081;50.584;7.032;2022-10-26T02:30:21;13.00;99.90
6102;DHT22;3081;50.584;7.032;2022-10-26T02:32:52;13.00;99.90
6102;DHT22;3081;50.584;7.032;2022-10-26T02:35:24;13.00;99.90
6102;DHT22;3081;50.584;7.032;2022-10-26T02:37:54;13.00;99.90
6102;DHT22;3081;50.584;7.032;2022-10-26T02:40:25;12.90;99.90
6102;DHT22;3081;50.584;7.032;2022-10-26T02:42:53;12.90;99.90
6102;DHT22;3081;50.584;7.032;2022-10-26T02:45:23;12.90;99.90
6102;DHT22;3081;50.584;7.032;2022-10-26T02:47:53;12.80;99.90
6102;DHT22;3081;50.584;7.032;2022-10-26T02:50:27;12.80;99.90
6102;DHT22;3081;50.584;7.032;2022-10-26T02:53:00;12.80;99.90
6102;DHT22;3081;50.584;7.032;2022-10-26T02:55:33;12.80;99.90
6102;DHT22;3081;50.584;7.032;2022-10-26T02:58:04;12.80;99.90
6102;DHT22;3081;50.584;7.032;2022-10-26T03:00:32;12.80;99.90
6102;DHT22;3081;50.584;7.032;2022-10-26T03:03:00;12.80;99.90
6102;DHT22;3081;50.584;7.032;2022-10-26T03:05:29;12.90;99.90
6102;DHT22;3081;50.584;7.032;2022-10-26T03:07:58;12.90;99.90
6102;DHT22;3081;50.584;7.032;2022-10-26T03:10:25;12.90;99.90
6102;DHT22;3081;50.584;7.032;2022-10-26T03:12:52;12.90;99.90
6102;DHT22;3081;50.584;7.032;2022-10-26T03:15:19;13.00;99.90
6102;DHT22;3081;50.584;7.032;2022-10-26T03:17:47;13.00;99.90
6102;DHT22;3081;50.584;7.032;2022-10-26T03:20:15;13.00;99.90
6102;DHT22;3081;50.584;7.032;2022-10-26T03:22:42;13.10;99.90
6102;DHT22;3081;50.584;7.032;2022-10-26T03:25:09;13.10;99.90
6102;DHT22;3081;50.584;7.032;2022-10-26T03:27:36;13.10;99.90
6102;DHT22;3081;50.584;7.032;2022-10-26T03:30:04;13.10;99.90
6102;DHT22;3081;50.584;7.032;2022-10-26T03:32:31;13.10;99.90
6102;DHT22;3081;50.584;7.032;2022-10-26T03:34:58;13.10;99.90
6102;DHT22;3081;50.584;7.032;2022-10-26T03:37:26;13.10;99.90
6102;DHT22;3081;50.584;7.032;2022-10-26T03:39:53;13.10;99.90
6102;DHT22;3081;50.584;7.032;2022-10-26T03:42:20;13.10;99.90
6102;DHT22;3081;50.584;7.032;2022-10-26T03:44:47;13.10;99.90
6102;DHT22;3081;50.584;7.032;2022-10-26T03:47:14;13.10;99.90
6102;DHT22;3081;50.584;7.032;2022-10-26T03:49:41;13.00;99.90
6102;DHT22;3081;50.584;7.032;2022-10-26T03:52:08;13.00;99.90
6102;DHT22;3081;50.584;7.032;2022-10-26T03:54:36;13.00;99.90
6102;DHT22;3081;50.584;7.032;2022-10-26T03:57:03;13.00;99.90
6102;DHT22;3081;50.584;7.032;2022-10-26T03:59:30;13.00;99.90
6102;DHT22;3081;50.584;7.032;2022-10-26T04:01:57;13.10;99.90
6102;DHT22;3081;50.584;7.032;2022-10-26T04:04:23;13.10;99.90
6102;DHT22;3081;50.584;7.032;2022-10-26T04:06:51;13.10;99.90
6102;DHT22;3081;50.584;7.032;2022-10-26T04:09:18;13.20;99.90
6102;DHT22;3081;50.584;7.032;2022-10-26T04:11:47;13.20;99.90
6102;DHT22;3081;50.584;7.032;2022-10-26T04:14:14;13.30;99.90
6102;DHT22;3081;50.584;7.032;2022-10-26T04:16:41;13.30;99.90
6102;DHT22;3081;50.584;7.032;2022-10-26T04:19:08;13.30;99.90
6102;DHT22;3081;50.584;7.032;2022-10-26T04:21:34;13.40;99.90
6102;DHT22;3081;50.584;7.032;2022-10-26T04:24:02;13.30;99.90
6102;DHT22;3081;50.584;7.032;2022-10-26T04:26:29;13.30;99.90
6102;DHT22;3081;50.584;7.032;2022-10-26T04:28:57;13.30;99.90
6102;DHT22;3081;50.584;7.032;2022-10-26T04:31:24;13.30;99.90
6102;DHT22;3081;50.584;7.032;2022-10-26T04:33:51;13.20;99.90
6102;DHT22;3081;50.584;7.032;2022-10-26T04:36:18;13.20;99.90
6102;DHT22;3081;50.584;7.032;2022-10-26T04:38:44;13.20;99.90
6102;DHT22;3081;50.584;7.032;2022-10-26T04:41:13;13.20;99.90
6102;DHT22;3081;50.584;7.032;2022-10-26T04:43:40;13.20;99.90
6102;DHT22;3081;50.584;7.032;2022-10-26T04:46:08;13.20;99.90
6102;DHT22;3081;50.584;7.032;2022-10-26T04:48:38;13.20;99.90
6102;DHT22;3081;50.584;7.032;2022-10-26T04:51:04;13.20;99.90
6102;DHT22;3081;50.584;7.032;2022-10-26T04:53:31;13.20;99.90
6102;DHT22;3081;50.584;7.032;2022-10-26T04:55:59;13.20;99.90
6102;DHT22;3081;50.584;7.032;2022-10-26T04:58:26;13.20;99.90
6102;DHT22;3081;50.584;7.032;2022-10-26T05:00:53;13.20;99.90
6102;DHT22;3081;50.584;7.032;2022-10-26T05:03:22;13.20;99.90
6102;DHT22;3081;50.584;7.032;2022-10-26T05:05:49;13.20;99.90
6102;DHT22;3081;50.584;7.032;2022-10-26T05:08:16;13.20;99.90
6102;DHT22;3081;50.584;7.032;2022-10-26T05:10:47;13.20;99.90
6102;DHT22;3081;50.584;7.032;2022-10-26T05:13:14;13.30;99.90
6102;DHT22;3081;50.584;7.032;2022-10-26T05:15:41;13.30;99.90
6102;DHT22;3081;50.584;7.032;2022-10-26T05:18:08;13.30;99.90
6102;DHT22;3081;50.584;7.032;2022-10-26T05:20:36;13.30;99.90
6102;DHT22;3081;50.584;7.032;2022-10-26T05:23:04;13.30;99.90
6102;DHT22;3081;50.584;7.032;2022-10-26T05:25:34;13.30;99.90
6102;DHT22;3081;50.584;7.032;2022-10-26T05:28:03;13.40;99.90
6102;DHT22;3081;50.584;7.032;2022-10-26T05:30:31;13.40;99.90
6102;DHT22;3081;50.584;7.032;2022-10-26T05:32:59;13.40;99.90
6102;DHT22;3081;50.584;7.032;2022-10-26T05:35:26;13.40;99.90
6102;DHT22;3081;50.584;7.032;2022-10-26T05:37:55;13.40;99.90
6102;DHT22;3081;50.584;7.032;2022-10-26T05:40:22;13.30;99.90
6102;DHT22;3081;50.584;7.032;2022-10-26T05:42:49;13.30;99.90
6102;DHT22;3081;50.584;7.032;2022-10-26T05:45:16;13.40;99.90
6102;DHT22;3081;50.584;7.032;2022-10-26T05:47:44;13.40;99.90
6102;DHT22;3081;50.584;7.032;2022-10-26T05:50:12;13.40;99.90
6102;DHT22;3081;50.584;7.032;2022-10-26T05:52:39;13.50;99.90
6102;DHT22;3081;50.584;7.032;2022-10-26T05:55:09;13.50;99.90
6102;DHT22;3081;50.584;7.032;2022-10-26T05:57:36;13.50;99.90
6102;DHT22;3081;50.584;7.032;2022-10-26T06:00:07;13.50;99.90
6102;DHT22;3081;50.584;7.032;2022-10-26T06:02:39;13.50;99.90
6102;DHT22;3081;50.584;7.032;2022-10-26T06:05:14;13.50;99.90
6102;DHT22;3081;50.584;7.032;2022-10-26T06:07:43;13.50;99.90
6102;DHT22;3081;50.584;7.032;2022-10-26T06:10:13;13.50;99.90
6102;DHT22;3081;50.584;7.032;2022-10-26T06:12:40;13.50;99.90
6102;DHT22;3081;50.584;7.032;2022-10-26T06:15:11;13.50;99.90
6102;DHT22;3081;50.584;7.032;2022-10-26T06:17:47;13.50;99.90
6102;DHT22;3081;50.584;7.032;2022-10-26T06:20:32;13.50;99.90
6102;DHT22;3081;50.584;7.032;2022-10-26T06:23:13;13.50;99.90
6102;DHT22;3081;50.584;7.032;2022-10-26T06:25:49;13.50;99.90
6102;DHT22;3081;50.584;7.032;2022-10-26T06:28:26;13.60;99.90
6102;DHT22;3081;50.584;7.032;2022-10-26T06:30:56;13.60;99.90
6102;DHT22;3081;50.584;7.032;2022-10-26T06:33:23;13.60;99.90
6102;DHT22;3081;50.584;7.032;2022-10-26T06:35:59;13.60;99.90
6102;DHT22;3081;50.584;7.032;2022-10-26T06:38:31;13.60;99.90
6102;DHT22;3081;50.584;7.032;2022-10-26T06:41:01;13.60;99.90
6102;DHT22;3081;50.584;7.032;2022-10-26T06:43:30;13.60;99.90
6102;DHT22;3081;50.584;7.032;2022-10-26T06:46:05;13.60;99.90
6102;DHT22;3081;50.584;7.032;2022-10-26T06:48:45;13.60;99.90
6102;DHT22;3081;50.584;7.032;2022-10-26T06:51:14;13.50;99.90
6102;DHT22;3081;50.584;7.032;2022-10-26T06:53:48;13.50;99.90
6102;DHT22;3081;50.584;7.032;2022-10-26T06:56:17;13.50;99.90
6102;DHT22;3081;50.584;7.032;2022-10-26T06:58:45;13.40;99.90
6102;DHT22;3081;50.584;7.032;2022-10-26T07:01:13;13.50;99.90
6102;DHT22;3081;50.584;7.032;2022-10-26T07:03:41;13.40;99.90
6102;DHT22;3081;50.584;7.032;2022-10-26T07:06:08;13.40;99.90
6102;DHT22;3081;50.584;7.032;2022-10-26T07:08:35;13.40;99.90
6102;DHT22;3081;50.584;7.032;2022-10-26T07:11:02;13.40;99.90
6102;DHT22;3081;50.584;7.032;2022-10-26T07:13:31;13.50;99.90
6102;DHT22;3081;50.584;7.032;2022-10-26T07:15:58;13.50;99.90
6102;DHT22;3081;50.584;7.032;2022-10-26T07:18:25;13.50;99.90
6102;DHT22;3081;50.584;7.032;2022-10-26T07:20:52;13.60;99.90
6102;DHT22;3081;50.584;7.032;2022-10-26T07:23:19;13.70;99.90
6102;DHT22;3081;50.584;7.032;2022-10-26T07:25:47;13.70;99.90
6102;DHT22;3081;50.584;7.032;2022-10-26T07:28:14;13.80;99.90
6102;DHT22;3081;50.584;7.032;2022-10-26T07:30:42;13.80;99.90
6102;DHT22;3081;50.584;7.032;2022-10-26T07:33:11;13.80;99.90
6102;DHT22;3081;50.584;7.032;2022-10-26T07:35:39;13.80;99.90
6102;DHT22;3081;50.584;7.032;2022-10-26T07:38:06;13.90;99.90
6102;DHT22;3081;50.584;7.032;2022-10-26T07:40:35;14.00;99.90
6102;DHT22;3081;50.584;7.032;2022-10-26T07:43:02;14.10;99.90
6102;DHT22;3081;50.584;7.032;2022-10-26T07:45:29;14.10;99.90
6102;DHT22;3081;50.584;7.032;2022-10-26T07:47:58;14.20;99.90
6102;DHT22;3081;50.584;7.032;2022-10-26T07:50:25;14.20;99.90
6102;DHT22;3081;50.584;7.032;2022-10-26T07:52:52;14.20;99.90
6102;DHT22;3081;50.584;7.032;2022-10-26T07:55:19;14.20;99.90
6102;DHT22;3081;50.584;7.032;2022-10-26T07:57:45;14.30;99.90
6102;DHT22;3081;50.584;7.032;2022-10-26T08:00:14;14.40;99.90
6102;DHT22;3081;50.584;7.032;2022-10-26T08:02:41;14.40;99.90
6102;DHT22;3081;50.584;7.032;2022-10-26T08:05:09;14.50;99.90
6102;DHT22;3081;50.584;7.032;2022-10-26T08:07:40;14.50;99.90
6102;DHT22;3081;50.584;7.032;2022-10-26T08:10:09;14.60;99.90
6102;DHT22;3081;50.584;7.032;2022-10-26T08:12:36;14.70;99.90
6102;DHT22;3081;50.584;7.032;2022-10-26T08:15:04;14.80;99.90
6102;DHT22;3081;50.584;7.032;2022-10-26T08:17:31;14.70;99.90
6102;DHT22;3081;50.584;7.032;2022-10-26T08:19:58;14.70;99.90
6102;DHT22;3081;50.584;7.032;2022-10-26T08:22:27;14.70;99.90
6102;DHT22;3081;50.584;7.032;2022-10-26T08:24:54;14.60;99.90
6102;DHT22;3081;50.584;7.032;2022-10-26T08:27:21;14.70;99.90
6102;DHT22;3081;50.584;7.032;2022-10-26T08:29:48;14.90;99.90
6102;DHT22;3081;50.584;7.032;2022-10-26T08:32:15;15.20;99.90
6102;DHT22;3081;50.584;7.032;2022-10-26T08:34:42;15.50;99.90
6102;DHT22;3081;50.584;7.032;2022-10-26T08:37:09;15.80;99.90
6102;DHT22;3081;50.584;7.032;2022-10-26T08:39:37;16.40;99.90
6102;DHT22;3081;50.584;7.032;2022-10-26T08:42:09;17.00;99.90
6102;DHT22;3081;50.584;7.032;2022-10-26T08:44:42;18.30;99.90
6102;DHT22;3081;50.584;7.032;2022-10-26T08:47:15;18.60;99.90
6102;DHT22;3081;50.584;7.032;2022-10-26T08:49:47;18.10;99.90
6102;DHT22;3081;50.584;7.032;2022-10-26T08:52:20;18.10;99.90
6102;DHT22;3081;50.584;7.032;2022-10-26T08:54:51;18.10;99.90
6102;DHT22;3081;50.584;7.032;2022-10-26T08:57:23;17.80;99.90
6102;DHT22;3081;50.584;7.032;2022-10-26T08:59:55;17.60;99.90
6102;DHT22;3081;50.584;7.032;2022-10-26T09:02:23;17.80;99.90
6102;DHT22;3081;50.584;7.032;2022-10-26T09:04:51;17.70;99.90
6102;DHT22;3081;50.584;7.032;2022-10-26T09:07:29;17.50;99.90
6102;DHT22;3081;50.584;7.032;2022-10-26T09:10:06;17.50;99.90
6102;DHT22;3081;50.584;7.032;2022-10-26T09:12:41;17.80;99.90
6102;DHT22;3081;50.584;7.032;2022-10-26T09:15:15;19.00;99.90
6102;DHT22;3081;50.584;7.032;2022-10-26T09:17:51;19.40;99.90
6102;DHT22;3081;50.584;7.032;2022-10-26T09:20:55;20.20;99.90
6102;DHT22;3081;50.584;7.032;2022-10-26T09:23:51;21.00;99.90
6102;DHT22;3081;50.584;7.032;2022-10-26T09:26:28;21.60;99.90
6102;DHT22;3081;50.584;7.032;2022-10-26T09:29:01;21.70;99.90
6102;DHT22;3081;50.584;7.032;2022-10-26T09:31:29;22.30;99.90
6102;DHT22;3081;50.584;7.032;2022-10-26T09:33:59;22.80;99.90
6102;DHT22;3081;50.584;7.032;2022-10-26T09:36:30;23.10;99.90
6102;DHT22;3081;50.584;7.032;2022-10-26T09:39:00;23.10;99.90
6102;DHT22;3081;50.584;7.032;2022-10-26T09:41:36;23.60;99.90
6102;DHT22;3081;50.584;7.032;2022-10-26T09:44:09;23.50;99.90
6102;DHT22;3081;50.584;7.032;2022-10-26T09:46:45;23.60;99.90
6102;DHT22;3081;50.584;7.032;2022-10-26T09:49:16;23.80;99.90
6102;DHT22;3081;50.584;7.032;2022-10-26T09:51:44;23.90;99.90
6102;DHT22;3081;50.584;7.032;2022-10-26T09:54:14;23.80;99.90
6102;DHT22;3081;50.584;7.032;2022-10-26T09:56:45;23.90;99.90
6102;DHT22;3081;50.584;7.032;2022-10-26T09:59:13;24.20;99.90
6102;DHT22;3081;50.584;7.032;2022-10-26T10:01:41;24.70;99.90
6102;DHT22;3081;50.584;7.032;2022-10-26T10:04:15;24.70;99.90
6102;DHT22;3081;50.584;7.032;2022-10-26T10:06:45;24.90;99.90
6102;DHT22;3081;50.584;7.032;2022-10-26T10:09:13;25.00;99.90
6102;DHT22;3081;50.584;7.032;2022-10-26T10:11:44;25.10;99.90
6102;DHT22;3081;50.584;7.032;2022-10-26T10:14:15;25.40;99.90
6102;DHT22;3081;50.584;7.032;2022-10-26T10:16:50;25.70;99.90
6102;DHT22;3081;50.584;7.032;2022-10-26T10:19:21;26.00;99.90
6102;DHT22;3081;50.584;7.032;2022-10-26T10:21:50;26.00;99.90
6102;DHT22;3081;50.584;7.032;2022-10-26T10:24:23;26.10;99.90
6102;DHT22;3081;50.584;7.032;2022-10-26T10:26:59;25.80;99.90
6102;DHT22;3081;50.584;7.032;2022-10-26T10:29:28;25.80;99.90
6102;DHT22;3081;50.584;7.032;2022-10-26T10:31:55;26.00;99.30
6102;DHT22;3081;50.584;7.032;2022-10-26T10:34:23;26.60;98.50
6102;DHT22;3081;50.584;7.032;2022-10-26T10:36:50;26.50;97.90
6102;DHT22;3081;50.584;7.032;2022-10-26T10:39:32;26.20;97.70
6102;DHT22;3081;50.584;7.032;2022-10-26T10:42:02;25.90;98.70
6102;DHT22;3081;50.584;7.032;2022-10-26T10:44:31;26.40;98.00
6102;DHT22;3081;50.584;7.032;2022-10-26T10:47:00;26.20;97.00
6102;DHT22;3081;50.584;7.032;2022-10-26T10:49:27;25.20;97.70
6102;DHT22;3081;50.584;7.032;2022-10-26T10:51:55;24.20;99.10
6102;DHT22;3081;50.584;7.032;2022-10-26T10:54:26;23.40;99.90
6102;DHT22;3081;50.584;7.032;2022-10-26T10:56:59;22.90;99.90
6102;DHT22;3081;50.584;7.032;2022-10-26T10:59:43;22.70;99.90
6102;DHT22;3081;50.584;7.032;2022-10-26T11:02:28;23.10;99.90
6102;DHT22;3081;50.584;7.032;2022-10-26T11:05:20;24.70;99.90
6102;DHT22;3081;50.584;7.032;2022-10-26T11:07:52;25.40;99.60
6102;DHT22;3081;50.584;7.032;2022-10-26T11:10:22;26.20;99.40
6102;DHT22;3081;50.584;7.032;2022-10-26T11:12:55;27.10;97.60
6102;DHT22;3081;50.584;7.032;2022-10-26T11:15:27;27.80;96.80
6102;DHT22;3081;50.584;7.032;2022-10-26T11:18:02;27.60;93.60
6102;DHT22;3081;50.584;7.032;2022-10-26T11:20:34;26.40;95.20
6102;DHT22;3081;50.584;7.032;2022-10-26T11:23:08;25.20;95.60
6102;DHT22;3081;50.584;7.032;2022-10-26T11:25:41;24.00;97.40
6102;DHT22;3081;50.584;7.032;2022-10-26T11:28:15;23.60;99.00
6102;DHT22;3081;50.584;7.032;2022-10-26T11:30:48;24.00;98.90
6102;DHT22;3081;50.584;7.032;2022-10-26T11:33:21;24.40;97.50
6102;DHT22;3081;50.584;7.032;2022-10-26T11:35:55;24.60;96.60
6102;DHT22;3081;50.584;7.032;2022-10-26T11:38:29;24.60;97.40
6102;DHT22;3081;50.584;7.032;2022-10-26T11:41:02;25.10;96.50
6102;DHT22;3081;50.584;7.032;2022-10-26T11:43:37;25.70;96.30
6102;DHT22;3081;50.584;7.032;2022-10-26T11:46:10;26.20;94.20
6102;DHT22;3081;50.584;7.032;2022-10-26T11:48:43;26.50;94.30
6102;DHT22;3081;50.584;7.032;2022-10-26T11:51:30;26.70;93.70
6102;DHT22;3081;50.584;7.032;2022-10-26T11:54:03;26.90;92.90
6102;DHT22;3081;50.584;7.032;2022-10-26T11:56:37;27.10;93.10
6102;DHT22;3081;50.584;7.032;2022-10-26T11:59:05;27.50;92.30
6102;DHT22;3081;50.584;7.032;2022-10-26T12:01:37;27.70;91.30
6102;DHT22;3081;50.584;7.032;2022-10-26T12:04:05;27.40;91.10
6102;DHT22;3081;50.584;7.032;2022-10-26T12:06:33;26.90;92.20
6102;DHT22;3081;50.584;7.032;2022-10-26T12:09:03;26.30;92.20
6102;DHT22;3081;50.584;7.032;2022-10-26T12:11:37;26.10;92.60
6102;DHT22;3081;50.584;7.032;2022-10-26T12:14:14;25.90;92.40
6102;DHT22;3081;50.584;7.032;2022-10-26T12:16:51;25.60;93.10
6102;DHT22;3081;50.584;7.032;2022-10-26T12:19:23;25.00;93.40
6102;DHT22;3081;50.584;7.032;2022-10-26T12:21:53;24.10;94.90
6102;DHT22;3081;50.584;7.032;2022-10-26T12:24:28;23.60;96.00
6102;DHT22;3081;50.584;7.032;2022-10-26T12:26:58;23.30;96.30
6102;DHT22;3081;50.584;7.032;2022-10-26T12:29:44;23.30;97.30
6102;DHT22;3081;50.584;7.032;2022-10-26T12:35:38;23.70;96.40
6102;DHT22;3081;50.584;7.032;2022-10-26T12:41:19;24.20;95.90
6102;DHT22;3081;50.584;7.032;2022-10-26T12:43:47;24.90;95.30
6102;DHT22;3081;50.584;7.032;2022-10-26T12:46:41;24.90;95.10
6102;DHT22;3081;50.584;7.032;2022-10-26T12:55:53;25.50;93.90
6102;DHT22;3081;50.584;7.032;2022-10-26T13:02:00;26.90;92.50
6102;DHT22;3081;50.584;7.032;2022-10-26T13:07:38;27.50;91.10
6102;DHT22;3081;50.584;7.032;2022-10-26T13:10:18;27.70;90.50
6102;DHT22;3081;50.584;7.032;2022-10-26T13:12:48;27.80;90.40
6102;DHT22;3081;50.584;7.032;2022-10-26T13:15:21;28.00;88.20
6102;DHT22;3081;50.584;7.032;2022-10-26T13:18:13;28.10;88.80
6102;DHT22;3081;50.584;7.032;2022-10-26T13:20:52;28.30;88.60
6102;DHT22;3081;50.584;7.032;2022-10-26T13:23:24;28.40;87.50
6102;DHT22;3081;50.584;7.032;2022-10-26T13:26:04;28.00;87.10
6102;DHT22;3081;50.584;7.032;2022-10-26T13:28:42;27.20;88.70
6102;DHT22;3081;50.584;7.032;2022-10-26T13:31:17;27.20;89.60
6102;DHT22;3081;50.584;7.032;2022-10-26T13:34:09;27.40;88.40
6102;DHT22;3081;50.584;7.032;2022-10-26T13:36:41;27.50;88.60
6102;DHT22;3081;50.584;7.032;2022-10-26T13:39:14;27.80;85.50
6102;DHT22;3081;50.584;7.032;2022-10-26T13:41:44;27.80;86.20
6102;DHT22;3081;50.584;7.032;2022-10-26T13:44:17;27.80;84.60
6102;DHT22;3081;50.584;7.032;2022-10-26T13:46:50;27.60;86.40
6102;DHT22;3081;50.584;7.032;2022-10-26T13:49:21;27.50;85.70
6102;DHT22;3081;50.584;7.032;2022-10-26T13:51:50;27.70;85.20
6102;DHT22;3081;50.584;7.032;2022-10-26T13:54:24;27.40;84.90
6102;DHT22;3081;50.584;7.032;2022-10-26T13:57:04;27.20;86.20
6102;DHT22;3081;50.584;7.032;2022-10-26T13:59:38;27.60;86.50
6102;DHT22;3081;50.584;7.032;2022-10-26T14:02:15;27.90;85.50
6102;DHT22;3081;50.584;7.032;2022-10-26T14:04:45;28.70;84.70
6102;DHT22;3081;50.584;7.032;2022-10-26T14:07:16;29.80;83.10
6102;DHT22;3081;50.584;7.032;2022-10-26T14:09:55;31.00;80.30
6102;DHT22;3081;50.584;7.032;2022-10-26T14:12:25;31.70;75.20
6102;DHT22;3081;50.584;7.032;2022-10-26T14:14:56;31.20;75.70
6102;DHT22;3081;50.584;7.032;2022-10-26T14:17:25;30.80;76.10
6102;DHT22;3081;50.584;7.032;2022-10-26T14:19:52;30.00;76.50
6102;DHT22;3081;50.584;7.032;2022-10-26T14:22:21;29.00;79.10
6102;DHT22;3081;50.584;7.032;2022-10-26T14:24:55;28.00;80.80
6102;DHT22;3081;50.584;7.032;2022-10-26T14:27:25;27.00;82.60
6102;DHT22;3081;50.584;7.032;2022-10-26T14:29:53;26.30;85.70
6102;DHT22;3081;50.584;7.032;2022-10-26T14:32:21;25.70;86.50
6102;DHT22;3081;50.584;7.032;2022-10-26T14:34:48;25.20;89.10
6102;DHT22;3081;50.584;7.032;2022-10-26T14:37:25;25.00;90.10
6102;DHT22;3081;50.584;7.032;2022-10-26T14:39:56;25.00;90.30
6102;DHT22;3081;50.584;7.032;2022-10-26T14:42:27;25.00;90.40
6102;DHT22;3081;50.584;7.032;2022-10-26T14:44:55;24.80;90.60
6102;DHT22;3081;50.584;7.032;2022-10-26T14:47:23;24.60;90.80
6102;DHT22;3081;50.584;7.032;2022-10-26T14:49:51;24.50;91.00
6102;DHT22;3081;50.584;7.032;2022-10-26T14:52:22;24.40;91.30
6102;DHT22;3081;50.584;7.032;2022-10-26T14:55:02;24.40;91.30
6102;DHT22;3081;50.584;7.032;2022-10-26T14:57:31;24.40;91.60
6102;DHT22;3081;50.584;7.032;2022-10-26T15:00:09;24.30;91.60
6102;DHT22;3081;50.584;7.032;2022-10-26T15:02:39;24.20;91.80
6102;DHT22;3081;50.584;7.032;2022-10-26T15:05:18;24.00;92.20
6102;DHT22;3081;50.584;7.032;2022-10-26T15:07:45;24.00;92.30
6102;DHT22;3081;50.584;7.032;2022-10-26T15:13:24;23.80;93.10
6102;DHT22;3081;50.584;7.032;2022-10-26T15:15:55;23.70;93.20
6102;DHT22;3081;50.584;7.032;2022-10-26T15:18:25;23.40;93.40
6102;DHT22;3081;50.584;7.032;2022-10-26T15:20:53;23.20;93.50
6102;DHT22;3081;50.584;7.032;2022-10-26T15:23:21;22.90;93.80
6102;DHT22;3081;50.584;7.032;2022-10-26T15:25:52;22.70;94.10
6102;DHT22;3081;50.584;7.032;2022-10-26T15:28:23;22.50;94.30
6102;DHT22;3081;50.584;7.032;2022-10-26T15:31:02;22.30;94.70
6102;DHT22;3081;50.584;7.032;2022-10-26T15:33:29;22.10;95.00
6102;DHT22;3081;50.584;7.032;2022-10-26T15:36:11;22.00;95.40
6102;DHT22;3081;50.584;7.032;2022-10-26T15:38:39;21.80;95.70
6102;DHT22;3081;50.584;7.032;2022-10-26T15:41:13;21.60;95.80
6102;DHT22;3081;50.584;7.032;2022-10-26T15:43:42;21.40;96.10
6102;DHT22;3081;50.584;7.032;2022-10-26T15:46:09;21.30;96.30
6102;DHT22;3081;50.584;7.032;2022-10-26T15:48:36;21.10;96.50
6102;DHT22;3081;50.584;7.032;2022-10-26T15:51:05;21.00;96.70
6102;DHT22;3081;50.584;7.032;2022-10-26T15:53:32;20.90;96.90
6102;DHT22;3081;50.584;7.032;2022-10-26T15:55:59;20.80;97.20
6102;DHT22;3081;50.584;7.032;2022-10-26T15:58:27;20.60;97.60
6102;DHT22;3081;50.584;7.032;2022-10-26T16:00:56;20.50;98.10
6102;DHT22;3081;50.584;7.032;2022-10-26T16:03:24;20.40;98.40
6102;DHT22;3081;50.584;7.032;2022-10-26T16:05:55;20.20;98.80
6102;DHT22;3081;50.584;7.032;2022-10-26T16:08:23;20.00;99.20
6102;DHT22;3081;50.584;7.032;2022-10-26T16:10:52;19.80;99.60
6102;DHT22;3081;50.584;7.032;2022-10-26T16:13:18;19.70;99.90
6102;DHT22;3081;50.584;7.032;2022-10-26T16:15:46;19.50;99.90
6102;DHT22;3081;50.584;7.032;2022-10-26T16:18:14;19.30;99.90
6102;DHT22;3081;50.584;7.032;2022-10-26T16:20:44;19.20;99.90
6102;DHT22;3081;50.584;7.032;2022-10-26T16:23:11;19.00;99.90
6102;DHT22;3081;50.584;7.032;2022-10-26T16:25:41;19.00;99.90
6102;DHT22;3081;50.584;7.032;2022-10-26T16:28:10;18.90;99.90
6102;DHT22;3081;50.584;7.032;2022-10-26T16:30:38;18.80;99.90
6102;DHT22;3081;50.584;7.032;2022-10-26T16:33:04;18.70;99.90
6102;DHT22;3081;50.584;7.032;2022-10-26T16:35:33;18.70;99.90
6102;DHT22;3081;50.584;7.032;2022-10-26T16:38:00;18.60;99.90
6102;DHT22;3081;50.584;7.032;2022-10-26T16:40:26;18.50;99.90
6102;DHT22;3081;50.584;7.032;2022-10-26T16:42:53;18.50;99.90
6102;DHT22;3081;50.584;7.032;2022-10-26T16:45:20;18.50;99.90
6102;DHT22;3081;50.584;7.032;2022-10-26T16:47:47;18.50;99.90
6102;DHT22;3081;50.584;7.032;2022-10-26T16:50:14;18.40;99.90